Time;durP1;ratioP1;P1;durP2;ratioP2;P2;SDS_P1;SDS_P2;PMS_P1;PMS_P2;Temp;Humidity;BMP_temperature;BMP_pressure;BME280_temperature;BME280_humidity;BME280_pressure;Samples;Min_cycle;Max_cycle;Signal;HPM_P1;HPM_P2
2022/04/14 00:01:17;;;;;;;0.57;0.57;;;9.80;1.00;;;;;;5038301;28;20207;-78
2022/04/14 00:03:43;;;;;;;0.60;0.60;;;9.90;1.00;;;;;;5042429;28;20651;-78
2022/04/14 00:06:08;;;;;;;0.60;0.60;;;9.90;1.00;;;;;;5044742;28;20168;-77
2022/04/14 00:08:34;;;;;;;0.70;0.70;;;9.90;1.00;;;;;;5053605;28;20198;-77
2022/04/14 00:10:59;;;;;;;0.60;0.60;;;9.80;1.00;;;;;;5053276;28;20198;-79
2022/04/14 00:13:25;;;;;;;0.53;0.53;;;9.70;1.00;;;;;;5053402;28;20179;-77
2022/04/14 00:15:51;;;;;;;0.50;0.50;;;9.80;1.00;;;;;;5053213;28;20171;-77
2022/04/14 00:18:16;;;;;;;0.60;0.60;;;9.80;1.00;;;;;;5053075;28;20183;-77
2022/04/14 00:20:42;;;;;;;0.60;0.60;;;9.90;1.00;;;;;;5052520;28;20191;-77
2022/04/14 00:23:08;;;;;;;0.70;0.70;;;9.90;1.00;;;;;;5053474;28;20215;-77
2022/04/14 00:25:34;;;;;;;0.70;0.70;;;9.90;1.00;;;;;;5044721;28;20190;-77
2022/04/14 00:27:59;;;;;;;0.60;0.60;;;9.90;1.00;;;;;;5053073;28;20627;-77
2022/04/14 00:30:25;;;;;;;0.60;0.60;;;9.80;1.00;;;;;;5052556;28;20229;-78
2022/04/14 00:32:50;;;;;;;0.60;0.60;;;9.80;1.00;;;;;;5052976;28;20175;-76
2022/04/14 00:35:16;;;;;;;0.60;0.60;;;9.60;1.00;;;;;;5052034;28;20167;-76
2022/04/14 00:37:42;;;;;;;0.50;0.50;;;9.20;1.00;;;;;;5053615;28;20210;-77
2022/04/14 00:40:08;;;;;;;0.60;0.60;;;9.00;40.70;;;;;;5052120;28;20210;-79
2022/04/14 00:42:34;;;;;;;0.50;0.50;;;8.90;95.40;;;;;;5048066;28;20235;-78
2022/04/14 00:44:59;;;;;;;0.60;0.60;;;9.10;55.40;;;;;;5044983;28;20203;-77
2022/04/14 00:47:25;;;;;;;0.60;0.60;;;9.10;17.10;;;;;;5048874;28;20277;-76
2022/04/14 00:49:51;;;;;;;0.60;0.60;;;9.20;64.70;;;;;;5052619;28;20666;-77
2022/04/14 00:52:16;;;;;;;0.50;0.50;;;9.20;97.90;;;;;;5053326;28;20179;-76
2022/04/14 00:54:42;;;;;;;0.60;0.60;;;9.30;50.50;;;;;;5052512;28;20324;-75
2022/04/14 00:57:08;;;;;;;0.50;0.50;;;9.30;15.90;;;;;;5052392;28;20182;-76
2022/04/14 00:59:34;;;;;;;0.60;0.60;;;9.30;1.00;;;;;;5051945;28;20337;-76
2022/04/14 01:02:00;;;;;;;0.60;0.60;;;9.30;1.50;;;;;;5051803;28;20286;-76
2022/04/14 01:04:27;;;;;;;0.70;0.70;;;9.30;12.00;;;;;;5052108;28;20178;-77
2022/04/14 01:06:53;;;;;;;0.60;0.60;;;9.10;19.00;;;;;;5052376;28;20202;-76
2022/04/14 01:09:19;;;;;;;0.50;0.50;;;9.10;12.20;;;;;;5051552;28;20202;-78
2022/04/14 01:11:45;;;;;;;0.63;0.63;;;8.90;11.90;;;;;;5051818;28;20743;-77
2022/04/14 01:14:26;;;;;;;0.50;0.50;;;9.00;49.20;;;;;;5052110;28;20179;-77
2022/04/14 01:16:53;;;;;;;0.60;0.60;;;9.10;37.50;;;;;;5051751;28;20297;-76
2022/04/14 01:19:18;;;;;;;0.70;0.70;;;9.20;42.30;;;;;;5051475;28;20182;-77
2022/04/14 01:21:50;;;;;;;0.60;0.60;;;9.20;23.50;;;;;;5051672;28;20589;-77
2022/04/14 01:24:16;;;;;;;0.70;0.70;;;9.30;18.60;;;;;;5051799;28;20168;-77
2022/04/14 01:26:42;;;;;;;0.67;0.67;;;9.20;30.90;;;;;;5051625;28;20601;-77
2022/04/14 01:29:22;;;;;;;0.70;0.70;;;9.20;11.70;;;;;;5051317;28;20202;-77
2022/04/14 01:31:52;;;;;;;0.60;0.60;;;9.20;9.10;;;;;;5052036;28;20197;-78
2022/04/14 01:34:19;;;;;;;0.60;0.60;;;9.10;23.40;;;;;;5052747;28;20211;-77
2022/04/14 01:36:45;;;;;;;0.63;0.63;;;9.10;19.20;;;;;;5053442;28;20272;-78
2022/04/14 01:39:13;;;;;;;0.67;0.67;;;9.10;23.60;;;;;;5051955;28;20565;-77
2022/04/14 01:41:39;;;;;;;0.60;0.60;;;9.00;31.60;;;;;;5051542;28;20238;-78
2022/04/14 01:44:05;;;;;;;0.70;0.70;;;9.00;25.90;;;;;;5051369;28;20269;-79
2022/04/14 01:46:31;;;;;;;0.70;0.70;;;9.00;21.80;;;;;;5051022;28;20293;-79
2022/04/14 01:48:58;;;;;;;0.70;0.70;;;9.00;16.80;;;;;;5051259;28;20240;-77
2022/04/14 01:51:24;;;;;;;0.70;0.70;;;9.00;21.70;;;;;;5051173;28;20203;-78
2022/04/14 01:53:49;;;;;;;0.70;0.70;;;9.00;5.30;;;;;;5051434;28;20175;-79
2022/04/14 01:56:15;;;;;;;0.70;0.70;;;9.00;12.60;;;;;;5051167;28;20168;-77
2022/04/14 01:58:40;;;;;;;0.63;0.63;;;8.90;22.40;;;;;;5050900;28;20174;-78
2022/04/14 02:01:06;;;;;;;0.60;0.60;;;8.80;61.50;;;;;;5050789;28;20199;-78
2022/04/14 02:03:31;;;;;;;0.70;0.70;;;8.80;49.90;;;;;;5051135;28;20299;-78
2022/04/14 02:05:57;;;;;;;0.70;0.70;;;8.80;42.20;;;;;;5051093;28;20369;-78
2022/04/14 02:08:22;;;;;;;0.70;0.70;;;8.70;40.70;;;;;;5050440;28;20222;-79
2022/04/14 02:10:48;;;;;;;0.60;0.60;;;8.70;40.00;;;;;;5042134;28;20616;-78
2022/04/14 02:13:13;;;;;;;0.70;0.70;;;8.60;63.30;;;;;;5051009;28;20250;-77
2022/04/14 02:15:39;;;;;;;0.70;0.70;;;8.70;90.60;;;;;;5051111;28;20701;-78
2022/04/14 02:18:04;;;;;;;0.63;0.63;;;8.70;93.70;;;;;;5051121;28;20262;-78
2022/04/14 02:20:30;;;;;;;0.60;0.60;;;8.80;82.00;;;;;;5050485;28;20597;-77
2022/04/14 02:22:55;;;;;;;0.60;0.60;;;8.80;69.90;;;;;;5050674;28;20214;-78
2022/04/14 02:25:21;;;;;;;0.70;0.70;;;8.70;65.00;;;;;;5050792;28;20177;-78
2022/04/14 02:27:46;;;;;;;0.60;0.60;;;8.80;93.60;;;;;;5050830;28;20175;-77
2022/04/14 02:30:12;;;;;;;0.67;0.67;;;8.60;96.90;;;;;;5050447;28;20554;-79
2022/04/14 02:32:38;;;;;;;0.70;0.70;;;8.60;97.00;;;;;;5051053;28;20730;-77
2022/04/14 02:35:04;;;;;;;0.70;0.70;;;8.50;33.70;;;;;;5050928;28;20179;-77
2022/04/14 02:37:30;;;;;;;0.70;0.70;;;8.40;61.40;;;;;;5050784;28;20640;-77
2022/04/14 02:39:55;;;;;;;0.67;0.67;;;8.30;53.70;;;;;;5051409;28;20212;-78
2022/04/14 02:42:21;;;;;;;0.60;0.60;;;8.20;97.60;;;;;;5054377;28;20207;-80
2022/04/14 02:44:46;;;;;;;0.80;0.80;;;8.30;99.90;;;;;;5064980;28;20211;-78
2022/04/14 02:47:12;;;;;;;0.70;0.70;;;8.30;99.90;;;;;;5062232;28;20190;-78
2022/04/14 02:49:37;;;;;;;0.80;0.80;;;8.40;99.90;;;;;;5059489;28;20194;-79
2022/04/14 02:52:03;;;;;;;0.70;0.70;;;8.20;99.90;;;;;;5053992;28;20664;-78
2022/04/14 02:54:29;;;;;;;0.70;0.70;;;8.20;99.90;;;;;;5050643;28;20632;-78
2022/04/14 02:56:54;;;;;;;0.80;0.80;;;8.10;99.90;;;;;;5050659;28;20175;-77
2022/04/14 02:59:20;;;;;;;0.80;0.80;;;8.20;99.90;;;;;;5054124;28;20605;-77
2022/04/14 03:01:45;;;;;;;0.77;0.77;;;8.20;99.90;;;;;;5054430;28;20183;-77
2022/04/14 03:04:11;;;;;;;0.60;0.60;;;8.20;99.90;;;;;;5054503;28;20648;-78
2022/04/14 03:06:36;;;;;;;0.60;0.60;;;8.20;99.90;;;;;;5054567;28;20175;-77
2022/04/14 03:09:02;;;;;;;0.70;0.70;;;8.10;99.90;;;;;;5053783;28;20179;-77
2022/04/14 03:11:27;;;;;;;0.70;0.70;;;8.10;99.90;;;;;;5054207;28;20195;-78
2022/04/14 03:13:53;;;;;;;0.70;0.70;;;8.00;99.90;;;;;;5054666;28;20275;-77
2022/04/14 03:16:18;;;;;;;0.60;0.60;;;7.70;99.90;;;;;;5054331;28;20655;-77
2022/04/14 03:18:44;;;;;;;0.60;0.60;;;7.60;99.90;;;;;;5054412;28;20182;-80
2022/04/14 03:21:11;;;;;;;0.60;0.60;;;7.60;99.90;;;;;;5053890;28;20614;-77
2022/04/14 03:23:38;;;;;;;0.70;0.70;;;7.60;99.90;;;;;;5054344;28;20215;-77
2022/04/14 03:26:04;;;;;;;0.80;0.80;;;7.70;99.90;;;;;;5054119;28;20285;-77
2022/04/14 03:28:29;;;;;;;0.80;0.80;;;7.80;99.90;;;;;;5054169;28;20263;-78
2022/04/14 03:30:55;;;;;;;0.70;0.70;;;7.80;99.90;;;;;;5053655;28;20192;-77
2022/04/14 03:33:20;;;;;;;0.60;0.60;;;7.70;99.90;;;;;;5054504;28;20647;-77
2022/04/14 03:35:46;;;;;;;0.70;0.70;;;7.70;99.90;;;;;;5054471;28;20182;-78
2022/04/14 03:38:12;;;;;;;0.60;0.60;;;7.70;99.90;;;;;;5054072;28;20182;-79
2022/04/14 03:40:37;;;;;;;0.70;0.70;;;7.60;99.90;;;;;;5052961;28;20202;-76
2022/04/14 03:43:03;;;;;;;0.67;0.67;;;7.40;99.90;;;;;;5053549;28;20669;-76
2022/04/14 03:45:28;;;;;;;0.70;0.70;;;7.40;99.90;;;;;;5053940;28;20186;-77
2022/04/14 03:47:53;;;;;;;0.70;0.70;;;7.50;99.90;;;;;;5053805;28;20263;-77
2022/04/14 03:50:19;;;;;;;0.70;0.70;;;7.50;99.90;;;;;;5053199;28;20198;-77
2022/04/14 03:52:44;;;;;;;0.70;0.70;;;7.50;99.90;;;;;;5053519;28;20673;-77
2022/04/14 03:55:10;;;;;;;0.70;0.70;;;7.50;99.90;;;;;;5053574;28;20195;-78
2022/04/14 03:57:36;;;;;;;0.67;0.67;;;7.50;99.90;;;;;;5053625;28;20601;-77
2022/04/14 04:00:02;;;;;;;0.80;0.80;;;7.50;99.90;;;;;;5053122;28;20542;-77
2022/04/14 04:02:27;;;;;;;0.60;0.60;;;7.40;99.90;;;;;;5056753;28;20214;-78
2022/04/14 04:04:53;;;;;;;0.60;0.60;;;7.50;99.90;;;;;;5039920;28;20179;-76
2022/04/14 04:07:18;;;;;;;0.50;0.50;;;7.50;99.90;;;;;;5055313;28;20179;-76
2022/04/14 04:09:44;;;;;;;0.60;0.60;;;7.60;99.90;;;;;;5056680;28;20206;-77
2022/04/14 04:12:09;;;;;;;0.50;0.50;;;7.60;99.90;;;;;;5054490;28;21365;-76
2022/04/14 04:14:35;;;;;;;0.77;0.77;;;7.50;99.90;;;;;;5053816;28;20258;-77
2022/04/14 04:17:01;;;;;;;0.60;0.60;;;7.40;99.90;;;;;;5054080;28;20182;-77
2022/04/14 04:19:26;;;;;;;0.60;0.60;;;7.40;99.90;;;;;;5053471;28;20183;-76
2022/04/14 04:21:52;;;;;;;0.70;0.70;;;7.30;99.90;;;;;;5046560;28;20195;-76
2022/04/14 04:24:17;;;;;;;0.67;0.67;;;7.30;99.90;;;;;;5048558;28;20284;-77
2022/04/14 04:26:43;;;;;;;0.60;0.60;;;7.40;99.90;;;;;;5051392;28;20762;-77
2022/04/14 04:29:09;;;;;;;0.70;0.70;;;7.30;99.90;;;;;;5041991;28;20198;-76
2022/04/14 04:31:35;;;;;;;0.60;0.60;;;7.30;99.90;;;;;;5040659;28;20204;-77
2022/04/14 04:34:00;;;;;;;0.67;0.67;;;7.30;99.90;;;;;;5042273;28;20541;-79
2022/04/14 04:36:26;;;;;;;0.60;0.60;;;7.30;99.90;;;;;;5046272;28;20183;-77
2022/04/14 04:38:51;;;;;;;0.70;0.70;;;7.20;99.90;;;;;;5046322;28;20211;-84
2022/04/14 04:41:17;;;;;;;0.70;0.70;;;7.10;99.90;;;;;;5049246;28;20252;-78
2022/04/14 04:43:42;;;;;;;0.70;0.70;;;7.20;99.90;;;;;;5048600;28;20212;-76
2022/04/14 04:46:08;;;;;;;0.70;0.70;;;7.20;99.90;;;;;;5047751;28;20168;-76
2022/04/14 04:48:34;;;;;;;0.70;0.70;;;7.20;99.90;;;;;;5033414;28;20179;-77
2022/04/14 04:50:59;;;;;;;0.50;0.50;;;7.30;99.90;;;;;;5036687;28;20502;-77
2022/04/14 04:53:25;;;;;;;0.70;0.70;;;7.40;99.90;;;;;;5040750;28;20175;-75
2022/04/14 04:55:50;;;;;;;0.70;0.70;;;7.40;99.90;;;;;;5052717;28;20167;-78
2022/04/14 04:58:16;;;;;;;0.67;0.67;;;7.40;99.90;;;;;;5053033;28;20543;-78
2022/04/14 05:00:43;;;;;;;0.60;0.60;;;7.40;99.90;;;;;;5043629;28;20594;-77
2022/04/14 05:03:09;;;;;;;0.70;0.70;;;7.60;99.90;;;;;;5032693;28;20330;-77
2022/04/14 05:05:35;;;;;;;0.63;0.63;;;7.80;99.90;;;;;;5032217;28;20664;-77
2022/04/14 05:08:01;;;;;;;0.80;0.80;;;7.80;99.90;;;;;;5032520;28;20179;-76
2022/04/14 05:10:27;;;;;;;0.60;0.60;;;7.70;99.90;;;;;;5031946;28;20676;-77
2022/04/14 05:12:52;;;;;;;0.70;0.70;;;7.90;99.90;;;;;;5032571;28;20187;-77
2022/04/14 05:15:17;;;;;;;0.63;0.63;;;7.90;99.90;;;;;;5032591;28;20167;-78
2022/04/14 05:17:43;;;;;;;0.63;0.63;;;8.00;99.90;;;;;;5032311;28;20209;-76
2022/04/14 05:20:09;;;;;;;0.50;0.50;;;8.00;99.90;;;;;;5031249;28;20203;-76
2022/04/14 05:22:35;;;;;;;0.60;0.60;;;8.10;99.90;;;;;;5032580;28;20211;-76
2022/04/14 05:25:02;;;;;;;0.60;0.60;;;8.20;99.90;;;;;;5032549;28;20529;-79
2022/04/14 05:27:28;;;;;;;0.60;0.60;;;8.20;99.90;;;;;;5032676;28;20617;-77
2022/04/14 05:29:53;;;;;;;0.60;0.60;;;8.30;99.90;;;;;;5031943;28;20172;-76
2022/04/14 05:32:19;;;;;;;0.60;0.60;;;8.10;99.90;;;;;;5032087;28;20368;-80
2022/04/14 05:34:44;;;;;;;0.60;0.60;;;8.10;99.90;;;;;;5032039;28;20307;-76
2022/04/14 05:37:10;;;;;;;0.50;0.50;;;8.30;99.90;;;;;;5032020;28;20186;-78
2022/04/14 05:39:35;;;;;;;0.70;0.70;;;8.40;99.90;;;;;;5146513;23;20222;-81
2022/04/14 05:42:01;;;;;;;0.67;0.67;;;8.30;99.90;;;;;;5084127;28;20189;-81
2022/04/14 05:44:26;;;;;;;0.60;0.60;;;8.50;99.90;;;;;;5087544;28;20186;-81
2022/04/14 05:46:52;;;;;;;0.60;0.60;;;8.20;99.90;;;;;;5096049;28;20176;-83
2022/04/14 05:49:18;;;;;;;0.70;0.70;;;8.10;99.90;;;;;;5096112;28;20231;-82
2022/04/14 05:51:44;;;;;;;0.60;0.60;;;8.40;99.90;;;;;;5096204;28;20190;-81
2022/04/14 05:54:09;;;;;;;0.67;0.67;;;8.30;99.90;;;;;;5095817;28;20193;-79
2022/04/14 05:56:35;;;;;;;0.70;0.70;;;8.70;99.90;;;;;;5095282;28;20177;-81
2022/04/14 05:59:00;;;;;;;0.70;0.70;;;9.20;87.60;;;;;;5094858;28;20567;-80
2022/04/14 06:01:26;;;;;;;0.60;0.60;;;9.60;12.00;;;;;;5094912;28;20201;-81
2022/04/14 06:03:51;;;;;;;0.60;0.60;;;9.70;1.00;;;;;;5094490;28;20209;-79
2022/04/14 06:06:17;;;;;;;0.60;0.60;;;9.70;1.00;;;;;;5095118;28;20188;-79
2022/04/14 06:08:43;;;;;;;0.50;0.50;;;9.90;1.00;;;;;;5095110;28;20189;-81
2022/04/14 06:11:09;;;;;;;0.60;0.60;;;10.10;1.00;;;;;;5094886;28;20198;-81
2022/04/14 06:13:34;;;;;;;0.60;0.60;;;10.30;1.00;;;;;;5094985;28;20182;-80
2022/04/14 06:16:00;;;;;;;0.60;0.60;;;10.40;1.00;;;;;;5095491;28;20193;-79
2022/04/14 06:18:26;;;;;;;0.60;0.60;;;10.20;1.00;;;;;;5095275;28;20186;-80
2022/04/14 06:20:54;;;;;;;0.60;0.60;;;9.90;1.00;;;;;;5094111;28;20194;-79
2022/04/14 06:23:19;;;;;;;0.50;0.50;;;10.30;1.00;;;;;;5096967;28;20638;-79
2022/04/14 06:25:49;;;;;;;0.50;0.50;;;11.10;1.00;;;;;;5080204;28;20209;-78
2022/04/14 06:28:15;;;;;;;0.50;0.50;;;11.30;1.00;;;;;;5097848;28;20189;-78
2022/04/14 06:30:41;;;;;;;0.47;0.47;;;11.30;1.00;;;;;;5081694;28;20265;-77
2022/04/14 06:33:06;;;;;;;0.60;0.60;;;11.10;1.00;;;;;;5101935;28;20262;-78
2022/04/14 06:35:32;;;;;;;0.50;0.50;;;11.00;1.00;;;;;;5101728;28;20693;-77
2022/04/14 06:37:57;;;;;;;0.40;0.40;;;11.20;1.00;;;;;;5100123;28;20176;-78
2022/04/14 06:40:23;;;;;;;0.50;0.50;;;11.70;1.00;;;;;;5099490;28;20212;-79
2022/04/14 06:42:50;;;;;;;0.40;0.40;;;12.30;1.00;;;;;;5099346;28;20201;-79
2022/04/14 06:45:16;;;;;;;0.40;0.40;;;12.40;1.00;;;;;;5097218;28;20561;-77
2022/04/14 06:47:42;;;;;;;0.47;0.47;;;12.80;99.90;;;;;;5098209;28;20170;-78
2022/04/14 06:50:08;;;;;;;0.43;0.43;;;13.00;1.00;;;;;;5097484;28;20272;-78
2022/04/14 06:52:34;;;;;;;0.50;0.50;;;13.30;1.00;;;;;;5096555;28;20654;-79
2022/04/14 06:55:00;;;;;;;0.40;0.40;;;13.60;99.90;;;;;;5098040;28;20174;-78
2022/04/14 06:57:26;;;;;;;0.40;0.40;;;14.40;1.00;;;;;;5095839;28;20208;-78
2022/04/14 06:59:51;;;;;;;0.50;0.50;;;14.60;99.90;;;;;;5094829;28;20528;-79
2022/04/14 07:02:17;;;;;;;0.47;0.47;;;14.20;1.00;;;;;;5095969;28;20209;-80
2022/04/14 07:04:42;;;;;;;0.40;0.40;;;14.40;1.00;;;;;;5095431;28;20205;-78
2022/04/14 07:07:08;;;;;;;0.40;0.40;;;14.60;1.00;;;;;;5095896;28;20174;-78
2022/04/14 07:09:34;;;;;;;0.40;0.40;;;14.80;1.00;;;;;;5094746;28;20181;-78
2022/04/14 07:12:00;;;;;;;0.40;0.40;;;14.70;1.00;;;;;;5095429;28;20198;-79
2022/04/14 07:14:28;;;;;;;0.40;0.40;;;14.80;1.00;;;;;;5096323;28;20275;-77
2022/04/14 07:16:57;;;;;;;0.40;0.40;;;15.30;1.00;;;;;;5095242;28;20660;-79
2022/04/14 07:19:23;;;;;;;0.40;0.40;;;16.60;2.90;;;;;;5095395;28;20174;-79
2022/04/14 07:21:49;;;;;;;0.40;0.40;;;17.60;99.90;;;;;;5096598;28;20273;-79
2022/04/14 07:24:15;;;;;;;0.40;0.40;;;18.00;99.90;;;;;;5095979;28;20260;-79
2022/04/14 07:26:40;;;;;;;0.40;0.40;;;18.40;20.00;;;;;;5096108;28;20655;-79
2022/04/14 07:29:06;;;;;;;0.40;0.40;;;18.80;1.00;;;;;;5095448;28;20256;-79
2022/04/14 07:31:32;;;;;;;0.30;0.30;;;18.70;1.00;;;;;;5095267;28;20262;-78
2022/04/14 07:33:59;;;;;;;0.30;0.30;;;18.50;1.00;;;;;;5093972;28;20175;-79
2022/04/14 07:36:25;;;;;;;0.30;0.30;;;18.60;1.00;;;;;;5077588;28;20170;-79
2022/04/14 07:38:51;;;;;;;0.30;0.30;;;18.20;1.00;;;;;;5095072;28;20219;-79
2022/04/14 07:41:16;;;;;;;0.30;0.30;;;18.40;1.00;;;;;;5095372;28;20562;-79
2022/04/14 07:43:42;;;;;;;0.30;0.30;;;18.30;15.90;;;;;;5102183;28;20213;-78
2022/04/14 07:46:08;;;;;;;0.30;0.30;;;18.50;31.40;;;;;;5105713;28;20184;-78
2022/04/14 07:48:33;;;;;;;0.40;0.40;;;18.20;80.90;;;;;;5102509;28;20759;-80
2022/04/14 07:51:02;;;;;;;0.30;0.30;;;18.20;62.70;;;;;;5098132;28;20204;-79
2022/04/14 07:53:28;;;;;;;0.30;0.30;;;18.00;67.10;;;;;;5099111;28;20178;-79
2022/04/14 07:55:54;;;;;;;0.30;0.30;;;18.50;13.40;;;;;;5098807;28;20174;-78
2022/04/14 07:58:20;;;;;;;0.40;0.40;;;18.90;1.00;;;;;;5098298;28;20498;-79
2022/04/14 08:00:49;;;;;;;0.30;0.30;;;19.30;1.00;;;;;;5099629;28;20290;-80
2022/04/14 08:03:15;;;;;;;0.33;0.33;;;19.30;1.00;;;;;;5100619;28;20209;-78
2022/04/14 08:05:46;;;;;;;0.33;0.33;;;19.20;1.00;;;;;;5099893;28;20633;-79
2022/04/14 08:08:17;;;;;;;0.47;0.47;;;19.20;1.00;;;;;;5099550;28;20626;-79
2022/04/14 08:10:46;;;;;;;0.40;0.40;;;19.10;1.00;;;;;;5100425;28;20186;-79
2022/04/14 08:13:12;;;;;;;0.33;0.33;;;19.50;1.00;;;;;;5098714;28;20562;-79
2022/04/14 08:15:39;;;;;;;0.30;0.30;;;19.70;1.00;;;;;;5099583;28;20185;-80
2022/04/14 08:18:06;;;;;;;0.30;0.30;;;19.50;1.00;;;;;;5090267;28;20183;-79
2022/04/14 08:20:33;;;;;;;0.40;0.40;;;20.00;1.00;;;;;;5070801;28;20195;-80
2022/04/14 08:22:59;;;;;;;0.30;0.30;;;20.40;1.00;;;;;;5067533;28;20264;-78
2022/04/14 08:25:27;;;;;;;0.37;0.37;;;20.60;1.00;;;;;;5073891;28;20257;-76
2022/04/14 08:27:53;;;;;;;0.43;0.43;;;20.70;1.00;;;;;;5073363;28;20175;-77
2022/04/14 08:30:21;;;;;;;0.40;0.40;;;20.50;1.00;;;;;;5072824;28;20275;-77
2022/04/14 08:32:50;;;;;;;0.30;0.30;;;20.50;1.00;;;;;;5069666;28;20556;-76
2022/04/14 08:35:16;;;;;;;0.30;0.30;;;20.90;1.00;;;;;;5062124;28;20568;-77
2022/04/14 08:37:43;;;;;;;0.40;0.40;;;21.30;1.00;;;;;;5067637;28;20182;-78
2022/04/14 08:40:12;;;;;;;0.40;0.40;;;21.60;1.00;;;;;;5056486;28;20229;-79
2022/04/14 08:42:42;;;;;;;0.40;0.40;;;21.70;1.00;;;;;;5055216;28;20242;-78
2022/04/14 08:45:13;;;;;;;0.30;0.30;;;21.10;1.00;;;;;;5052665;28;20266;-77
2022/04/14 08:47:40;;;;;;;0.50;0.50;;;20.80;1.00;;;;;;5058085;28;20224;-77
2022/04/14 08:50:12;;;;;;;0.33;0.33;;;21.30;1.00;;;;;;5072600;28;20273;-77
2022/04/14 08:52:39;;;;;;;0.50;0.50;;;21.40;1.00;;;;;;5055952;28;20856;-76
2022/04/14 08:55:06;;;;;;;0.40;0.40;;;21.90;1.00;;;;;;5070249;28;20281;-76
2022/04/14 08:57:33;;;;;;;0.30;0.30;;;22.10;1.00;;;;;;5072964;28;20194;-77
2022/04/14 09:00:00;;;;;;;0.50;0.50;;;22.20;1.00;;;;;;5072452;28;20178;-77
2022/04/14 09:02:27;;;;;;;0.40;0.40;;;22.20;1.00;;;;;;5073432;28;20237;-76
2022/04/14 09:04:55;;;;;;;0.40;0.40;;;22.50;1.00;;;;;;5073283;28;20262;-76
2022/04/14 09:07:21;;;;;;;0.50;0.50;;;22.40;1.00;;;;;;5072822;28;20615;-77
2022/04/14 09:09:46;;;;;;;0.50;0.50;;;22.60;1.00;;;;;;5071111;28;20179;-77
2022/04/14 09:12:12;;;;;;;0.40;0.40;;;22.60;1.00;;;;;;5072546;28;20652;-76
2022/04/14 09:14:39;;;;;;;0.50;0.50;;;22.80;1.00;;;;;;5072583;28;20225;-77
2022/04/14 09:17:05;;;;;;;0.60;0.60;;;23.20;1.00;;;;;;5072671;28;20171;-76
2022/04/14 09:19:32;;;;;;;0.50;0.50;;;23.30;1.00;;;;;;5072198;28;20259;-77
2022/04/14 09:22:08;;;;;;;0.60;0.60;;;23.40;1.00;;;;;;5071998;28;20202;-76
2022/04/14 09:24:40;;;;;;;0.40;0.40;;;23.30;1.00;;;;;;5072163;28;20610;-76
2022/04/14 09:27:06;;;;;;;0.53;0.53;;;23.40;1.00;;;;;;5072609;28;20184;-77
2022/04/14 09:29:32;;;;;;;0.60;0.60;;;23.10;1.00;;;;;;5071524;28;20228;-77
2022/04/14 09:31:57;;;;;;;0.60;0.60;;;23.30;1.00;;;;;;5069789;28;20673;-77
2022/04/14 09:34:51;;;;;;;0.60;0.60;;;23.50;1.00;;;;;;5072396;28;20227;-77
2022/04/14 09:37:18;;;;;;;0.70;0.70;;;23.80;1.00;;;;;;5052219;28;20187;-76
2022/04/14 09:40:08;;;;;;;0.50;0.50;;;24.00;1.00;;;;;;5051775;28;20205;-77
2022/04/14 09:42:36;;;;;;;0.60;0.60;;;23.60;1.00;;;;;;5053124;28;20199;-77
2022/04/14 09:45:19;;;;;;;0.60;0.60;;;23.50;1.00;;;;;;5069461;28;20167;-77
2022/04/14 09:47:46;;;;;;;0.50;0.50;;;23.50;1.00;;;;;;5063710;28;20170;-77
2022/04/14 09:50:39;;;;;;;0.50;0.50;;;24.00;1.00;;;;;;5050817;28;20213;-77
2022/04/14 09:53:15;;;;;;;0.60;0.60;;;24.20;1.00;;;;;;5052891;28;20659;-75
2022/04/14 09:55:41;;;;;;;0.60;0.60;;;23.90;1.00;;;;;;5062364;28;20243;-75
2022/04/14 09:58:13;;;;;;;0.37;0.37;;;23.70;1.00;;;;;;5072861;28;20179;-75
2022/04/14 10:00:44;;;;;;;0.40;0.40;;;24.10;1.00;;;;;;5069220;28;20205;-75
2022/04/14 10:03:17;;;;;;;0.57;0.57;;;24.00;1.00;;;;;;5071713;28;20667;-76
2022/04/14 10:05:47;;;;;;;0.60;0.60;;;24.00;1.00;;;;;;5054222;28;20539;-75
2022/04/14 10:08:13;;;;;;;0.60;0.60;;;24.20;1.00;;;;;;5071601;28;20540;-76
2022/04/14 10:10:41;;;;;;;0.60;0.60;;;24.00;1.00;;;;;;5062506;28;20211;-76
2022/04/14 10:13:16;;;;;;;0.57;0.57;;;24.20;1.00;;;;;;5051811;28;20623;-77
2022/04/14 10:15:46;;;;;;;0.50;0.50;;;24.30;1.00;;;;;;5068480;28;20174;-77
2022/04/14 10:18:16;;;;;;;0.67;0.67;;;24.20;1.00;;;;;;5071698;28;20632;-76
2022/04/14 10:20:46;;;;;;;0.43;0.43;;;24.20;1.00;;;;;;5061772;28;20607;-77
2022/04/14 10:23:14;;;;;;;0.30;0.30;;;24.20;1.00;;;;;;5052032;28;20223;-78
2022/04/14 10:25:42;;;;;;;0.60;0.60;;;24.50;1.00;;;;;;5052324;28;20247;-75
2022/04/14 10:28:12;;;;;;;0.60;0.60;;;24.60;1.00;;;;;;5052336;28;20240;-76
2022/04/14 10:30:38;;;;;;;0.43;0.43;;;25.00;1.00;;;;;;5052334;28;20194;-76
2022/04/14 10:33:04;;;;;;;0.60;0.60;;;25.00;1.00;;;;;;5052157;28;20182;-76
2022/04/14 10:35:31;;;;;;;0.50;0.50;;;24.60;1.00;;;;;;5057898;28;20178;-77
2022/04/14 10:38:33;;;;;;;0.43;0.43;;;24.70;1.00;;;;;;5068552;28;20186;-76
2022/04/14 10:41:03;;;;;;;0.47;0.47;;;24.90;1.00;;;;;;5060380;28;20214;-77
2022/04/14 10:43:29;;;;;;;0.40;0.40;;;25.30;1.00;;;;;;5052443;28;20209;-79
2022/04/14 10:46:00;;;;;;;0.50;0.50;;;25.30;1.00;;;;;;5060851;28;20286;-78
2022/04/14 10:48:31;;;;;;;0.47;0.47;;;25.00;1.00;;;;;;5062458;28;20183;-76
2022/04/14 10:51:17;;;;;;;0.33;0.33;;;25.20;1.00;;;;;;5058718;28;20206;-78
2022/04/14 10:53:59;;;;;;;0.40;0.40;;;25.50;1.00;;;;;;5062021;28;20171;-77
2022/04/14 10:56:33;;;;;;;0.40;0.40;;;25.40;1.00;;;;;;5060500;28;20182;-77
2022/04/14 10:59:19;;;;;;;0.50;0.50;;;25.20;1.00;;;;;;5053453;28;20175;-79
2022/04/14 11:01:51;;;;;;;0.30;0.30;;;25.00;1.00;;;;;;5050891;28;20219;-78
2022/04/14 11:04:33;;;;;;;0.30;0.30;;;24.90;1.00;;;;;;5053749;28;20211;-79
2022/04/14 11:07:22;;;;;;;0.40;0.40;;;24.60;1.00;;;;;;5053428;28;20179;-79
2022/04/14 11:09:54;;;;;;;0.47;0.47;;;24.70;1.00;;;;;;5052889;28;20184;-77
2022/04/14 11:12:32;;;;;;;0.40;0.40;;;24.90;1.00;;;;;;5051259;28;20180;-80
2022/04/14 11:15:05;;;;;;;0.40;0.40;;;24.90;1.00;;;;;;5053792;28;20258;-79
2022/04/14 11:17:31;;;;;;;0.40;0.40;;;24.90;1.00;;;;;;5053721;28;20179;-77
2022/04/14 11:20:15;;;;;;;0.43;0.43;;;25.20;1.00;;;;;;5058795;28;20654;-78
2022/04/14 11:23:05;;;;;;;0.40;0.40;;;25.30;1.00;;;;;;5056643;28;20207;-78
2022/04/14 11:25:45;;;;;;;0.40;0.40;;;25.60;1.00;;;;;;5058013;28;20171;-80
2022/04/14 11:28:18;;;;;;;0.40;0.40;;;25.00;1.00;;;;;;5058032;28;20706;-79
2022/04/14 11:30:44;;;;;;;0.50;0.50;;;25.00;1.00;;;;;;5061996;28;20209;-78
2022/04/14 11:33:14;;;;;;;0.30;0.30;;;24.70;1.00;;;;;;5057423;28;20249;-78
2022/04/14 11:35:44;;;;;;;0.40;0.40;;;25.30;1.00;;;;;;5055782;28;20233;-77
2022/04/14 11:38:30;;;;;;;0.30;0.30;;;25.90;1.00;;;;;;5055598;28;20180;-78
2022/04/14 11:40:56;;;;;;;0.40;0.40;;;25.60;1.00;;;;;;5060207;28;20262;-79
2022/04/14 11:43:23;;;;;;;0.40;0.40;;;25.20;1.00;;;;;;5056470;28;20210;-77
2022/04/14 11:45:50;;;;;;;0.40;0.40;;;25.40;1.00;;;;;;5057472;28;20178;-76
2022/04/14 11:48:16;;;;;;;0.40;0.40;;;25.50;1.00;;;;;;5056236;28;20179;-77
2022/04/14 11:50:41;;;;;;;0.50;0.50;;;25.60;1.00;;;;;;5055361;28;20253;-79
2022/04/14 11:53:07;;;;;;;0.60;0.60;;;25.60;1.00;;;;;;5054638;28;20232;-75
2022/04/14 11:55:42;;;;;;;0.30;0.30;;;25.60;1.00;;;;;;5045056;28;20210;-76
2022/04/14 11:58:13;;;;;;;0.33;0.33;;;25.10;1.00;;;;;;5054054;28;20202;-76
2022/04/14 12:00:46;;;;;;;0.37;0.37;;;25.10;1.00;;;;;;5052177;28;20199;-75
2022/04/14 12:03:15;;;;;;;0.40;0.40;;;25.40;1.00;;;;;;5055131;28;20214;-78
2022/04/14 12:05:51;;;;;;;0.40;0.40;;;25.40;1.00;;;;;;5054512;28;20181;-77
2022/04/14 12:08:17;;;;;;;0.33;0.33;;;25.60;1.00;;;;;;5053992;28;20182;-76
2022/04/14 12:10:43;;;;;;;0.40;0.40;;;25.20;1.00;;;;;;5052818;28;20194;-76
2022/04/14 12:13:10;;;;;;;0.40;0.40;;;25.50;1.00;;;;;;5054699;28;20174;-77
2022/04/14 12:15:36;;;;;;;0.40;0.40;;;25.30;1.00;;;;;;5055635;28;20172;-77
2022/04/14 12:18:06;;;;;;;0.30;0.30;;;25.40;1.00;;;;;;5055253;28;20194;-76
2022/04/14 12:20:45;;;;;;;0.40;0.40;;;25.50;1.00;;;;;;5063266;28;20195;-77
2022/04/14 12:23:11;;;;;;;0.30;0.30;;;24.80;1.00;;;;;;5081289;28;20194;-76
2022/04/14 12:25:38;;;;;;;0.30;0.30;;;24.00;1.00;;;;;;5091057;28;20170;-77
2022/04/14 12:28:05;;;;;;;0.40;0.40;;;24.40;1.00;;;;;;5097348;28;20166;-76
2022/04/14 12:30:31;;;;;;;0.30;0.30;;;24.40;1.00;;;;;;5089860;28;20199;-76
2022/04/14 12:33:04;;;;;;;0.30;0.30;;;24.30;1.00;;;;;;5066436;28;20175;-77
2022/04/14 12:35:39;;;;;;;0.40;0.40;;;24.30;1.00;;;;;;5075041;28;20190;-76
2022/04/14 12:38:14;;;;;;;0.30;0.30;;;24.50;1.00;;;;;;5074903;28;20301;-75
2022/04/14 12:41:03;;;;;;;0.33;0.33;;;24.90;1.00;;;;;;5072889;28;20210;-77
2022/04/14 12:43:37;;;;;;;0.40;0.40;;;24.90;1.00;;;;;;5054866;28;20353;-77
2022/04/14 12:46:26;;;;;;;0.30;0.30;;;25.10;1.00;;;;;;5054344;28;20203;-76
2022/04/14 12:49:09;;;;;;;0.40;0.40;;;25.00;1.00;;;;;;5053598;28;20172;-77
2022/04/14 12:51:50;;;;;;;0.40;0.40;;;24.90;1.00;;;;;;5052295;28;20203;-77
2022/04/14 12:54:17;;;;;;;0.30;0.30;;;24.90;1.00;;;;;;5054432;28;20254;-77
2022/04/14 12:57:02;;;;;;;0.30;0.30;;;25.40;1.00;;;;;;5054165;28;20202;-76
2022/04/14 12:59:29;;;;;;;0.30;0.30;;;25.40;1.00;;;;;;5061251;28;20186;-77
2022/04/14 13:02:01;;;;;;;0.40;0.40;;;25.40;1.00;;;;;;5090415;23;20222;-77